KMNN/MNN METAR and TAF weather

Enter ICAO airport designator
Station Type Date Time Source
KMNN METAR 2021/06/25 15:53 UTC NOAA

KMNN 251553Z AUTO 20017KT 8SM FEW027 BKN100 24/18 A3011 RMK AO2 SLP189 T02440183


Station Type Date Time Source
KMNN Decoded METAR 2021/06/25 15:53 UTC NOAA

MARION MUNICIPAL AIRPORT, OH, United States (KMNN) 40-37N 83-04W 301M
Jun 25, 2021 - 11:53 AM EDT / 2021.06.25 1553 UTC
Wind: from the SSW (200 degrees) at 20 MPH (17 KT):0
Visibility: 8 mile(s):0
Sky conditions: mostly cloudy
Temperature: 75.9 F (24.4 C)
Dew Point: 64.9 F (18.3 C)
Relative Humidity: 68%
Pressure (altimeter): 30.11 in. Hg (1019 hPa)
ob: KMNN 251553Z AUTO 20017KT 8SM FEW027 BKN100 24/18 A3011 RMK AO2 SLP189 T02440183
cycle: 16

Station Type Date Time Source
KMNN TAF UTC NOAA

Error!

Example: see airport list